Time;durP1;ratioP1;P1;durP2;ratioP2;P2;SDS_P1;SDS_P2;PMS_P1;PMS_P2;Temp;Humidity;BMP_temperature;BMP_pressure;BME280_temperature;BME280_humidity;BME280_pressure;Samples;Min_cycle;Max_cycle;Signal;HPM_P1;HPM_P2
2021/01/17 00:00:46;;;;;;;0.90;0.37;;;-6.20;99.90;;;;;;20566456;28;20097;-64
2021/01/17 00:10:48;;;;;;;1.17;0.50;;;-6.20;99.90;;;;;;20579007;28;20154;-63
2021/01/17 00:20:50;;;;;;;1.10;0.50;;;-6.10;99.90;;;;;;20586760;28;20039;-63
2021/01/17 00:30:52;;;;;;;1.50;0.52;;;-6.10;99.90;;;;;;20580668;28;20046;-63
2021/01/17 00:40:53;;;;;;;1.58;0.68;;;-6.10;99.90;;;;;;20574733;28;20066;-63
2021/01/17 00:50:55;;;;;;;2.40;1.13;;;-6.00;99.90;;;;;;20560998;28;20051;-63
2021/01/17 01:00:58;;;;;;;3.23;0.83;;;-6.10;99.90;;;;;;20576448;28;20043;-63
2021/01/17 01:11:07;;;;;;;1.52;0.68;;;-6.30;99.90;;;;;;20610655;28;20043;-63
2021/01/17 01:21:11;;;;;;;1.63;0.70;;;-6.50;99.90;;;;;;20639910;28;20039;-63
2021/01/17 01:31:19;;;;;;;1.17;0.57;;;-6.60;99.90;;;;;;20591953;28;20105;-63
2021/01/17 01:41:25;;;;;;;2.00;0.83;;;-6.60;99.90;;;;;;20590189;28;20034;-63
2021/01/17 01:51:27;;;;;;;2.77;0.97;;;-6.70;99.90;;;;;;20587924;28;20051;-63
2021/01/17 02:01:29;;;;;;;2.80;1.40;;;-6.80;99.90;;;;;;20589621;28;20473;-63
2021/01/17 02:11:43;;;;;;;3.00;0.70;;;-6.90;99.90;;;;;;20588503;28;20649;-63
2021/01/17 02:21:56;;;;;;;2.70;0.83;;;-6.60;99.90;;;;;;20627632;28;20446;-63
2021/01/17 02:32:01;;;;;;;1.33;0.73;;;-6.30;99.90;;;;;;20570221;28;20039;-63
2021/01/17 02:42:03;;;;;;;3.22;0.40;;;-5.90;99.90;;;;;;20585452;28;20034;-63
2021/01/17 02:52:07;;;;;;;3.47;1.45;;;-5.80;99.90;;;;;;20584306;28;20051;-63
2021/01/17 03:02:12;;;;;;;2.60;0.93;;;-5.90;99.90;;;;;;20567860;28;20098;-64
2021/01/17 03:12:14;;;;;;;3.33;1.48;;;-5.90;99.90;;;;;;20583801;28;20145;-63
2021/01/17 03:22:15;;;;;;;4.45;1.95;;;-5.40;99.90;;;;;;20588234;28;20042;-64
2021/01/17 03:32:17;;;;;;;2.75;1.60;;;-4.40;99.90;;;;;;20564231;28;20050;-63
2021/01/17 03:42:20;;;;;;;4.88;2.17;;;-4.60;99.90;;;;;;20581538;28;20126;-64
2021/01/17 03:52:22;;;;;;;5.10;2.78;;;-4.30;99.90;;;;;;20563816;28;20043;-63
2021/01/17 04:02:23;;;;;;;4.03;1.95;;;-3.60;99.90;;;;;;20580788;28;20051;-64
2021/01/17 04:12:25;;;;;;;4.88;1.90;;;-3.30;99.90;;;;;;20590877;28;20430;-63
2021/01/17 04:22:27;;;;;;;6.45;2.35;;;-2.70;99.90;;;;;;20634745;28;20039;-64
2021/01/17 04:32:29;;;;;;;5.57;2.08;;;-2.30;99.90;;;;;;20595026;28;20051;-65
2021/01/17 04:42:34;;;;;;;2.67;1.73;;;-1.70;99.90;;;;;;20594591;28;20097;-64
2021/01/17 04:52:59;;;;;;;4.85;2.30;;;-1.30;99.90;;;;;;20594845;28;20125;-64
2021/01/17 05:03:10;;;;;;;3.55;1.52;;;-1.20;99.90;;;;;;20576621;28;20094;-64
2021/01/17 05:13:16;;;;;;;4.10;2.50;;;-1.00;99.90;;;;;;20612358;28;20050;-63
2021/01/17 05:23:18;;;;;;;6.30;2.78;;;-1.20;99.90;;;;;;20620890;28;20047;-63
2021/01/17 05:33:27;;;;;;;6.22;2.72;;;-2.40;99.90;;;;;;20573192;28;20110;-63
2021/01/17 05:43:29;;;;;;;3.28;1.70;;;-2.70;99.90;;;;;;20591216;28;20034;-65
2021/01/17 05:53:32;;;;;;;3.58;1.60;;;-1.40;99.90;;;;;;20572556;28;20039;-63
2021/01/17 06:03:36;;;;;;;4.32;1.70;;;-1.10;99.90;;;;;;20588516;28;20086;-63
2021/01/17 06:13:42;;;;;;;4.97;2.10;;;-1.00;99.90;;;;;;20601148;28;20358;-63
2021/01/17 06:23:56;;;;;;;3.97;1.77;;;-1.00;99.90;;;;;;20614810;28;20035;-63
2021/01/17 06:34:07;;;;;;;5.80;2.97;;;-1.10;99.90;;;;;;20568500;28;20055;-63
2021/01/17 06:44:13;;;;;;;8.02;3.00;;;-1.10;99.90;;;;;;20587099;28;20511;-63
2021/01/17 06:54:22;;;;;;;3.05;1.58;;;-1.70;99.90;;;;;;20584864;28;20404;-63
2021/01/17 07:04:44;;;;;;;9.63;4.85;;;-2.00;99.90;;;;;;20567081;28;20097;-63
2021/01/17 07:14:57;;;;;;;7.72;4.40;;;-2.70;99.90;;;;;;20604331;28;20417;-64
2021/01/17 07:25:05;;;;;;;9.88;4.30;;;-4.00;99.90;;;;;;20567288;28;20370;-63
2021/01/17 07:35:12;;;;;;;6.95;4.00;;;-4.70;99.90;;;;;;20581923;28;20059;-63
2021/01/17 07:45:18;;;;;;;8.93;3.38;;;-5.10;99.90;;;;;;20582473;28;20109;-62
2021/01/17 07:55:21;;;;;;;5.32;2.28;;;-5.20;99.90;;;;;;20563621;28;20051;-63
2021/01/17 08:06:00;;;;;;;8.95;3.88;;;-4.90;99.90;;;;;;20563460;28;20055;-63
2021/01/17 08:16:12;;;;;;;8.93;4.28;;;-4.60;99.90;;;;;;20540609;28;20493;-63
2021/01/17 08:26:14;;;;;;;9.10;3.47;;;-5.10;99.90;;;;;;20570502;28;20042;-64
2021/01/17 08:36:28;;;;;;;6.45;2.92;;;-5.00;99.90;;;;;;20578786;28;20130;-63
2021/01/17 08:46:38;;;;;;;4.97;2.50;;;-4.70;99.90;;;;;;20579741;28;20043;-64
2021/01/17 08:56:41;;;;;;;6.33;1.93;;;-4.10;99.90;;;;;;20582372;28;20110;-64
2021/01/17 09:06:43;;;;;;;6.43;3.28;;;-3.30;99.90;;;;;;20592920;28;20063;-64
2021/01/17 09:16:49;;;;;;;8.02;3.20;;;-2.70;99.90;;;;;;20629543;28;20054;-64
2021/01/17 09:26:54;;;;;;;8.02;3.90;;;-2.60;99.90;;;;;;20594061;28;20078;-64
2021/01/17 09:36:59;;;;;;;7.90;4.20;;;-1.80;99.90;;;;;;20590746;28;20054;-63
2021/01/17 09:47:02;;;;;;;6.05;3.50;;;-2.00;99.50;;;;;;20590363;28;20062;-63
2021/01/17 09:57:17;;;;;;;10.65;4.57;;;-1.90;99.90;;;;;;20588023;28;20082;-64
2021/01/17 10:07:21;;;;;;;7.20;3.80;;;-1.40;99.00;;;;;;20569772;28;20082;-64
2021/01/17 10:17:25;;;;;;;11.35;5.05;;;-1.10;97.90;;;;;;20628306;28;20077;-63
2021/01/17 10:27:27;;;;;;;4.82;2.85;;;-0.50;97.70;;;;;;20586973;28;20047;-63
2021/01/17 10:37:31;;;;;;;8.27;4.90;;;0.80;95.90;;;;;;20586294;28;20070;-62
2021/01/17 10:47:46;;;;;;;11.38;7.13;;;1.20;93.50;;;;;;20586153;28;20042;-63
2021/01/17 10:57:51;;;;;;;14.27;6.68;;;0.70;95.00;;;;;;20585787;28;20098;-63
2021/01/17 11:07:53;;;;;;;17.05;6.15;;;0.90;93.50;;;;;;20550553;28;20394;-63
2021/01/17 11:17:57;;;;;;;12.95;7.25;;;1.50;92.60;;;;;;20621264;28;20118;-63
2021/01/17 11:28:02;;;;;;;11.98;8.27;;;1.80;91.70;;;;;;20583414;28;20091;-63
2021/01/17 11:38:05;;;;;;;12.27;7.75;;;2.30;92.40;;;;;;20581352;28;20105;-63
2021/01/17 11:48:07;;;;;;;16.38;7.97;;;2.60;88.00;;;;;;20581570;28;20081;-64
2021/01/17 11:58:14;;;;;;;12.85;8.43;;;2.50;89.00;;;;;;20582005;28;20047;-64
2021/01/17 12:08:16;;;;;;;15.15;9.52;;;3.00;88.70;;;;;;20735078;23;20074;-63
2021/01/17 12:18:18;;;;;;;12.88;8.20;;;3.40;86.10;;;;;;20538973;28;20564;-64
2021/01/17 12:28:20;;;;;;;11.90;7.60;;;3.90;86.80;;;;;;20581191;28;20101;-63
2021/01/17 12:38:21;;;;;;;13.75;7.93;;;4.90;73.80;;;;;;20594633;28;20038;-63
2021/01/17 12:48:24;;;;;;;20.92;10.68;;;4.50;82.20;;;;;;20577000;28;20058;-62
2021/01/17 12:58:27;;;;;;;15.40;10.23;;;4.70;75.30;;;;;;20594962;28;20070;-62
2021/01/17 13:08:31;;;;;;;16.30;10.70;;;3.70;83.10;;;;;;20591847;28;20102;-63
2021/01/17 13:18:33;;;;;;;20.85;11.73;;;3.50;82.90;;;;;;20534235;28;20049;-63
2021/01/17 13:28:36;;;;;;;20.05;12.00;;;3.10;83.00;;;;;;20574669;28;20059;-62
2021/01/17 13:38:38;;;;;;;18.90;10.77;;;2.00;89.20;;;;;;20590405;28;20094;-62
2021/01/17 13:48:43;;;;;;;16.55;10.73;;;1.50;90.90;;;;;;20572504;28;20034;-62
2021/01/17 13:58:47;;;;;;;17.65;10.63;;;1.40;91.10;;;;;;20589779;28;20035;-62
2021/01/17 14:08:49;;;;;;;4.03;1.90;;;0.80;92.30;;;;;;20588345;28;20043;-62
2021/01/17 14:18:51;;;;;;;20.42;11.20;;;0.40;91.60;;;;;;20547438;28;20034;-62
2021/01/17 14:28:53;;;;;;;0.60;0.10;;;0.10;94.60;;;;;;20586882;28;20117;-62
2021/01/17 14:38:55;;;;;;;0.45;0.20;;;-0.10;92.40;;;;;;20569733;28;20038;-62
2021/01/17 14:48:57;;;;;;;0.68;0.13;;;0.50;91.10;;;;;;20584878;28;20050;-62
2021/01/17 14:58:59;;;;;;;0.10;0.10;;;0.60;91.10;;;;;;20584658;28;20563;-63
2021/01/17 15:09:06;;;;;;;0.03;0.00;;;0.60;91.40;;;;;;20583616;28;20457;-62
2021/01/17 15:19:08;;;;;;;0.15;0.10;;;0.60;91.40;;;;;;20526303;28;20366;-64
2021/01/17 15:29:15;;;;;;;16.05;10.43;;;0.40;91.00;;;;;;20583981;28;20102;-62
2021/01/17 15:39:19;;;;;;;0.22;0.10;;;-0.40;94.30;;;;;;20565030;28;20474;-62
2021/01/17 15:49:23;;;;;;;0.22;0.00;;;-0.70;94.60;;;;;;20580940;28;20059;-62
2021/01/17 15:59:27;;;;;;;2.60;0.10;;;-0.40;93.30;;;;;;20581821;28;20449;-62
2021/01/17 16:09:29;;;;;;;0.13;0.00;;;-0.40;94.20;;;;;;20571968;28;20077;-62
2021/01/17 16:19:32;;;;;;;0.00;0.00;;;-0.50;94.00;;;;;;20538583;28;20042;-62
2021/01/17 16:29:35;;;;;;;0.20;0.03;;;-0.60;94.90;;;;;;20579717;28;20097;-62
2021/01/17 16:39:38;;;;;;;0.40;0.00;;;-0.80;94.80;;;;;;20546288;28;20035;-62
2021/01/17 16:49:41;;;;;;;0.20;0.00;;;-0.90;95.20;;;;;;20594342;28;20054;-62
2021/01/17 16:59:44;;;;;;;1.08;0.00;;;-0.60;94.10;;;;;;20562031;28;20089;-62
2021/01/17 17:09:47;;;;;;;0.13;0.00;;;-0.50;93.90;;;;;;20574801;28;20448;-63
2021/01/17 17:19:50;;;;;;;0.47;0.05;;;-0.60;94.70;;;;;;20552916;28;20362;-62
2021/01/17 17:29:55;;;;;;;0.10;0.00;;;-0.70;95.50;;;;;;20575719;28;20346;-62
2021/01/17 17:39:57;;;;;;;0.20;0.00;;;-0.80;94.90;;;;;;20591349;28;20035;-62
2021/01/17 17:50:00;;;;;;;0.20;0.08;;;-0.90;96.40;;;;;;20589540;28;20062;-62
2021/01/17 18:00:05;;;;;;;0.10;0.00;;;-0.90;96.10;;;;;;20572760;28;20121;-62
2021/01/17 18:10:09;;;;;;;1.30;0.50;;;-1.20;97.90;;;;;;20588528;28;20441;-62
2021/01/17 18:20:11;;;;;;;0.40;0.00;;;-1.60;97.90;;;;;;20531005;28;20050;-62
2021/01/17 18:30:14;;;;;;;0.63;0.10;;;-1.80;96.80;;;;;;20570569;28;20046;-63
2021/01/17 18:40:19;;;;;;;0.30;0.10;;;-1.70;98.80;;;;;;20585508;28;20074;-62
2021/01/17 18:50:21;;;;;;;0.03;0.00;;;-1.20;95.00;;;;;;20568149;28;20069;-62
2021/01/17 19:00:27;;;;;;;5.15;1.50;;;-1.50;97.50;;;;;;20586016;28;20078;-62
2021/01/17 19:10:30;;;;;;;4.70;2.10;;;-2.20;97.50;;;;;;20584829;28;20051;-62
2021/01/17 19:20:33;;;;;;;0.10;0.10;;;-3.10;99.00;;;;;;20542526;28;20121;-64
2021/01/17 19:30:36;;;;;;;0.40;0.10;;;-3.70;99.90;;;;;;20567246;28;20094;-62
2021/01/17 19:40:39;;;;;;;0.80;0.10;;;-3.90;99.90;;;;;;20581692;28;20469;-63
2021/01/17 19:50:44;;;;;;;0.15;0.03;;;-3.90;99.90;;;;;;20532992;28;20046;-62
2021/01/17 20:00:52;;;;;;;0.55;0.10;;;-4.10;99.90;;;;;;20565489;28;20039;-62
2021/01/17 20:10:57;;;;;;;0.30;0.00;;;-4.20;99.90;;;;;;20580628;28;20050;-62
2021/01/17 20:21:03;;;;;;;0.10;0.00;;;-4.20;99.90;;;;;;20522279;28;20039;-63
2021/01/17 20:31:09;;;;;;;0.10;0.00;;;-4.30;99.90;;;;;;20564120;28;20101;-62
2021/01/17 20:41:12;;;;;;;0.20;0.00;;;-4.20;99.90;;;;;;20561703;28;20043;-63
2021/01/17 20:51:16;;;;;;;0.15;0.03;;;-4.20;99.90;;;;;;20564409;28;20082;-63
2021/01/17 21:01:20;;;;;;;0.95;0.08;;;-4.10;99.90;;;;;;20577830;28;20047;-62
2021/01/17 21:11:23;;;;;;;0.00;0.00;;;-4.10;99.90;;;;;;20575103;28;20047;-62
2021/01/17 21:21:26;;;;;;;0.10;0.00;;;-4.10;99.90;;;;;;20552522;28;20082;-62
2021/01/17 21:31:29;;;;;;;0.03;0.00;;;-4.30;99.90;;;;;;20559273;28;20059;-63
2021/01/17 21:41:34;;;;;;;0.35;0.10;;;-4.40;99.90;;;;;;20574209;28;20038;-62
2021/01/17 21:51:37;;;;;;;0.95;0.30;;;-4.50;99.90;;;;;;20573142;28;20042;-62
2021/01/17 22:01:39;;;;;;;0.00;0.00;;;-4.70;99.90;;;;;;20590273;28;20093;-63
2021/01/17 22:11:41;;;;;;;0.08;0.00;;;-4.90;99.90;;;;;;20570040;28;20097;-63
2021/01/17 22:21:43;;;;;;;0.20;0.00;;;-5.00;99.90;;;;;;20548684;28;20121;-62
2021/01/17 22:31:45;;;;;;;0.00;0.00;;;-4.90;99.90;;;;;;20588275;28;20097;-62
2021/01/17 22:41:48;;;;;;;0.00;0.00;;;-4.90;99.90;;;;;;20568615;28;20548;-62
2021/01/17 22:51:57;;;;;;;0.20;0.00;;;-4.90;99.90;;;;;;20568793;28;20038;-62
2021/01/17 23:02:04;;;;;;;0.00;0.00;;;-5.10;99.90;;;;;;20585905;28;20473;-62
2021/01/17 23:12:07;;;;;;;0.03;0.00;;;-5.10;99.90;;;;;;20583439;28;20548;-62
2021/01/17 23:22:09;;;;;;;0.65;0.00;;;-5.20;99.90;;;;;;20543153;28;20034;-62
2021/01/17 23:32:10;;;;;;;0.10;0.00;;;-5.50;99.90;;;;;;20566312;28;20129;-62
2021/01/17 23:42:13;;;;;;;0.55;0.00;;;-5.50;99.90;;;;;;20581761;28;20057;-63
2021/01/17 23:52:15;;;;;;;0.00;0.00;;;-5.40;99.90;;;;;;20580914;28;20051;-62
